Terminal Aerodrome Forecast
Issued by NWS Kansas City/Pleasant Hill, MO

Home | Current Version | Previous Version | Text Only | Print | Product List | Glossary On
Versions: 1 2 3 4 5 6 7 8 9 10 11 12
000
FTUS43 KEAX 142300
TAFMCI
TAF
KMCI 142320Z 1500/1524 16008KT P6SM BKN050
     FM151000 17008KT P6SM VCTS OVC035CB
     FM151500 34010KT P6SM VCSH BKN015
     FM152100 01010KT P6SM BKN025=

USA.gov is the U.S. government's official web portal to all federal, state and local government web resources and services.